sensor_id;sensor_type;location;lat;lon;timestamp;P1;durP1;ratioP1;P2;durP2;ratioP2
8714;SDS011;4394;51.208;8.904;2023-10-08T00:01:08;6.60;;;3.83;;
8714;SDS011;4394;51.208;8.904;2023-10-08T00:03:59;7.77;;;3.67;;
8714;SDS011;4394;51.208;8.904;2023-10-08T00:06:50;6.88;;;4.47;;
8714;SDS011;4394;51.208;8.904;2023-10-08T00:09:40;8.77;;;4.30;;
8714;SDS011;4394;51.208;8.904;2023-10-08T00:12:29;6.57;;;4.23;;
8714;SDS011;4394;51.208;8.904;2023-10-08T00:15:17;7.70;;;4.10;;
8714;SDS011;4394;51.208;8.904;2023-10-08T00:18:05;8.00;;;3.70;;
8714;SDS011;4394;51.208;8.904;2023-10-08T00:20:58;8.90;;;4.00;;
8714;SDS011;4394;51.208;8.904;2023-10-08T00:24:02;6.37;;;3.93;;
8714;SDS011;4394;51.208;8.904;2023-10-08T00:26:54;9.10;;;3.80;;
8714;SDS011;4394;51.208;8.904;2023-10-08T00:29:42;7.10;;;4.07;;
8714;SDS011;4394;51.208;8.904;2023-10-08T00:32:31;6.70;;;4.53;;
8714;SDS011;4394;51.208;8.904;2023-10-08T00:35:20;7.80;;;4.20;;
8714;SDS011;4394;51.208;8.904;2023-10-08T00:38:09;8.67;;;4.67;;
8714;SDS011;4394;51.208;8.904;2023-10-08T00:41:01;8.30;;;4.53;;
8714;SDS011;4394;51.208;8.904;2023-10-08T00:43:51;7.73;;;4.40;;
8714;SDS011;4394;51.208;8.904;2023-10-08T00:46:41;9.50;;;4.03;;
8714;SDS011;4394;51.208;8.904;2023-10-08T00:49:34;5.50;;;3.73;;
8714;SDS011;4394;51.208;8.904;2023-10-08T00:52:33;7.57;;;4.50;;
8714;SDS011;4394;51.208;8.904;2023-10-08T00:55:40;8.57;;;4.50;;
8714;SDS011;4394;51.208;8.904;2023-10-08T00:58:33;9.07;;;4.90;;
8714;SDS011;4394;51.208;8.904;2023-10-08T01:01:23;10.07;;;5.00;;
8714;SDS011;4394;51.208;8.904;2023-10-08T01:04:15;6.20;;;4.60;;
8714;SDS011;4394;51.208;8.904;2023-10-08T01:07:04;11.40;;;4.80;;
8714;SDS011;4394;51.208;8.904;2023-10-08T01:09:59;8.43;;;4.40;;
8714;SDS011;4394;51.208;8.904;2023-10-08T01:12:56;8.70;;;4.63;;
8714;SDS011;4394;51.208;8.904;2023-10-08T01:15:53;8.07;;;4.23;;
8714;SDS011;4394;51.208;8.904;2023-10-08T01:18:45;6.00;;;4.80;;
8714;SDS011;4394;51.208;8.904;2023-10-08T01:21:37;10.67;;;4.50;;
8714;SDS011;4394;51.208;8.904;2023-10-08T01:24:27;12.50;;;4.90;;
8714;SDS011;4394;51.208;8.904;2023-10-08T01:27:23;10.17;;;4.57;;
8714;SDS011;4394;51.208;8.904;2023-10-08T01:30:12;11.37;;;4.47;;
8714;SDS011;4394;51.208;8.904;2023-10-08T01:33:04;7.63;;;4.77;;
8714;SDS011;4394;51.208;8.904;2023-10-08T01:35:57;10.70;;;4.80;;
8714;SDS011;4394;51.208;8.904;2023-10-08T01:38:48;8.33;;;4.93;;
8714;SDS011;4394;51.208;8.904;2023-10-08T01:41:37;13.30;;;5.63;;
8714;SDS011;4394;51.208;8.904;2023-10-08T01:44:27;9.37;;;4.90;;
8714;SDS011;4394;51.208;8.904;2023-10-08T01:47:16;11.80;;;5.50;;
8714;SDS011;4394;51.208;8.904;2023-10-08T01:50:06;11.60;;;5.60;;
8714;SDS011;4394;51.208;8.904;2023-10-08T01:53:07;13.17;;;5.70;;
8714;SDS011;4394;51.208;8.904;2023-10-08T01:55:57;11.60;;;6.13;;
8714;SDS011;4394;51.208;8.904;2023-10-08T01:58:46;14.70;;;6.73;;
8714;SDS011;4394;51.208;8.904;2023-10-08T02:01:34;13.23;;;6.43;;
8714;SDS011;4394;51.208;8.904;2023-10-08T02:04:23;10.80;;;6.70;;
8714;SDS011;4394;51.208;8.904;2023-10-08T02:07:12;14.57;;;7.20;;
8714;SDS011;4394;51.208;8.904;2023-10-08T02:10:00;14.30;;;7.37;;
8714;SDS011;4394;51.208;8.904;2023-10-08T02:12:48;14.17;;;8.13;;
8714;SDS011;4394;51.208;8.904;2023-10-08T02:15:40;15.60;;;9.02;;
8714;SDS011;4394;51.208;8.904;2023-10-08T02:18:31;11.00;;;8.47;;
8714;SDS011;4394;51.208;8.904;2023-10-08T02:21:19;12.83;;;8.40;;
8714;SDS011;4394;51.208;8.904;2023-10-08T02:24:08;13.03;;;8.10;;
8714;SDS011;4394;51.208;8.904;2023-10-08T02:26:57;13.60;;;7.67;;
8714;SDS011;4394;51.208;8.904;2023-10-08T02:29:46;15.93;;;8.73;;
8714;SDS011;4394;51.208;8.904;2023-10-08T02:32:35;13.80;;;8.70;;
8714;SDS011;4394;51.208;8.904;2023-10-08T02:35:24;13.70;;;8.53;;
8714;SDS011;4394;51.208;8.904;2023-10-08T02:38:17;17.00;;;8.07;;
8714;SDS011;4394;51.208;8.904;2023-10-08T02:41:08;12.27;;;7.83;;
8714;SDS011;4394;51.208;8.904;2023-10-08T02:43:57;16.30;;;8.20;;
8714;SDS011;4394;51.208;8.904;2023-10-08T02:46:46;14.90;;;7.70;;
8714;SDS011;4394;51.208;8.904;2023-10-08T02:49:37;18.77;;;8.50;;
8714;SDS011;4394;51.208;8.904;2023-10-08T02:52:26;11.93;;;7.70;;
8714;SDS011;4394;51.208;8.904;2023-10-08T02:55:15;15.63;;;8.43;;
8714;SDS011;4394;51.208;8.904;2023-10-08T02:58:14;15.07;;;8.17;;
8714;SDS011;4394;51.208;8.904;2023-10-08T03:01:05;14.23;;;7.63;;
8714;SDS011;4394;51.208;8.904;2023-10-08T03:03:58;14.57;;;8.27;;
8714;SDS011;4394;51.208;8.904;2023-10-08T03:06:52;12.77;;;7.73;;
8714;SDS011;4394;51.208;8.904;2023-10-08T03:09:41;13.03;;;8.13;;
8714;SDS011;4394;51.208;8.904;2023-10-08T03:12:29;13.17;;;7.67;;
8714;SDS011;4394;51.208;8.904;2023-10-08T03:15:19;13.30;;;7.87;;
8714;SDS011;4394;51.208;8.904;2023-10-08T03:18:16;17.30;;;8.70;;
8714;SDS011;4394;51.208;8.904;2023-10-08T03:21:08;13.73;;;8.50;;
8714;SDS011;4394;51.208;8.904;2023-10-08T03:24:11;15.93;;;8.10;;
8714;SDS011;4394;51.208;8.904;2023-10-08T03:27:15;15.57;;;8.67;;
8714;SDS011;4394;51.208;8.904;2023-10-08T03:30:07;13.43;;;7.40;;
8714;SDS011;4394;51.208;8.904;2023-10-08T03:33:01;14.23;;;8.57;;
8714;SDS011;4394;51.208;8.904;2023-10-08T03:35:51;14.60;;;8.70;;
8714;SDS011;4394;51.208;8.904;2023-10-08T03:38:42;16.23;;;8.60;;
8714;SDS011;4394;51.208;8.904;2023-10-08T03:41:38;15.90;;;8.17;;
8714;SDS011;4394;51.208;8.904;2023-10-08T03:44:27;15.07;;;8.47;;
8714;SDS011;4394;51.208;8.904;2023-10-08T03:47:16;16.60;;;8.63;;
8714;SDS011;4394;51.208;8.904;2023-10-08T03:50:06;17.70;;;9.27;;
8714;SDS011;4394;51.208;8.904;2023-10-08T03:52:55;17.03;;;8.93;;
8714;SDS011;4394;51.208;8.904;2023-10-08T03:55:44;22.73;;;9.90;;
8714;SDS011;4394;51.208;8.904;2023-10-08T03:58:36;18.27;;;9.13;;
8714;SDS011;4394;51.208;8.904;2023-10-08T04:01:30;14.47;;;8.73;;
8714;SDS011;4394;51.208;8.904;2023-10-08T04:04:19;18.13;;;10.00;;
8714;SDS011;4394;51.208;8.904;2023-10-08T04:07:17;16.03;;;8.83;;
8714;SDS011;4394;51.208;8.904;2023-10-08T04:10:26;17.40;;;9.90;;
8714;SDS011;4394;51.208;8.904;2023-10-08T04:13:48;15.93;;;8.63;;
8714;SDS011;4394;51.208;8.904;2023-10-08T04:16:38;17.77;;;9.20;;
8714;SDS011;4394;51.208;8.904;2023-10-08T04:19:26;17.33;;;9.23;;
8714;SDS011;4394;51.208;8.904;2023-10-08T04:22:15;14.85;;;9.63;;
8714;SDS011;4394;51.208;8.904;2023-10-08T04:25:04;15.50;;;8.77;;
8714;SDS011;4394;51.208;8.904;2023-10-08T04:27:53;15.33;;;9.27;;
8714;SDS011;4394;51.208;8.904;2023-10-08T04:30:46;15.87;;;9.13;;
8714;SDS011;4394;51.208;8.904;2023-10-08T04:33:38;17.33;;;9.33;;
8714;SDS011;4394;51.208;8.904;2023-10-08T04:36:26;16.30;;;9.23;;
8714;SDS011;4394;51.208;8.904;2023-10-08T04:39:14;14.33;;;9.10;;
8714;SDS011;4394;51.208;8.904;2023-10-08T04:42:07;17.03;;;9.57;;
8714;SDS011;4394;51.208;8.904;2023-10-08T04:44:57;17.47;;;9.80;;
8714;SDS011;4394;51.208;8.904;2023-10-08T04:47:47;17.60;;;10.07;;
8714;SDS011;4394;51.208;8.904;2023-10-08T04:50:36;17.63;;;9.93;;
8714;SDS011;4394;51.208;8.904;2023-10-08T04:53:25;15.40;;;8.97;;
8714;SDS011;4394;51.208;8.904;2023-10-08T04:56:18;13.70;;;9.03;;
8714;SDS011;4394;51.208;8.904;2023-10-08T04:59:09;14.03;;;9.20;;
8714;SDS011;4394;51.208;8.904;2023-10-08T05:01:59;17.20;;;9.63;;
8714;SDS011;4394;51.208;8.904;2023-10-08T05:05:07;17.40;;;9.87;;
8714;SDS011;4394;51.208;8.904;2023-10-08T05:08:09;17.40;;;9.70;;
8714;SDS011;4394;51.208;8.904;2023-10-08T05:11:15;14.23;;;9.27;;
8714;SDS011;4394;51.208;8.904;2023-10-08T05:14:11;17.43;;;10.53;;
8714;SDS011;4394;51.208;8.904;2023-10-08T05:17:15;18.87;;;10.40;;
8714;SDS011;4394;51.208;8.904;2023-10-08T05:20:10;16.37;;;10.07;;
8714;SDS011;4394;51.208;8.904;2023-10-08T05:23:17;15.33;;;8.93;;
8714;SDS011;4394;51.208;8.904;2023-10-08T05:26:29;18.48;;;10.40;;
8714;SDS011;4394;51.208;8.904;2023-10-08T05:29:28;17.20;;;9.63;;
8714;SDS011;4394;51.208;8.904;2023-10-08T05:32:58;14.87;;;9.27;;
8714;SDS011;4394;51.208;8.904;2023-10-08T05:36:13;16.93;;;10.00;;
8714;SDS011;4394;51.208;8.904;2023-10-08T05:39:05;16.37;;;10.23;;
8714;SDS011;4394;51.208;8.904;2023-10-08T05:42:19;16.77;;;10.30;;
8714;SDS011;4394;51.208;8.904;2023-10-08T05:45:17;19.27;;;10.90;;
8714;SDS011;4394;51.208;8.904;2023-10-08T05:48:21;15.77;;;10.10;;
8714;SDS011;4394;51.208;8.904;2023-10-08T05:51:15;16.50;;;10.77;;
8714;SDS011;4394;51.208;8.904;2023-10-08T05:54:20;15.10;;;10.67;;
8714;SDS011;4394;51.208;8.904;2023-10-08T05:57:22;17.67;;;10.00;;
8714;SDS011;4394;51.208;8.904;2023-10-08T06:00:24;13.50;;;9.50;;
8714;SDS011;4394;51.208;8.904;2023-10-08T06:03:30;21.00;;;10.60;;
8714;SDS011;4394;51.208;8.904;2023-10-08T06:06:34;18.53;;;11.10;;
8714;SDS011;4394;51.208;8.904;2023-10-08T06:09:34;16.20;;;9.87;;
8714;SDS011;4394;51.208;8.904;2023-10-08T06:12:24;17.40;;;10.40;;
8714;SDS011;4394;51.208;8.904;2023-10-08T06:15:17;16.87;;;9.67;;
8714;SDS011;4394;51.208;8.904;2023-10-08T06:18:23;19.20;;;10.68;;
8714;SDS011;4394;51.208;8.904;2023-10-08T06:21:13;21.37;;;10.07;;
8714;SDS011;4394;51.208;8.904;2023-10-08T06:24:03;17.67;;;9.77;;
8714;SDS011;4394;51.208;8.904;2023-10-08T06:26:55;13.40;;;8.93;;
8714;SDS011;4394;51.208;8.904;2023-10-08T06:29:43;17.63;;;10.63;;
8714;SDS011;4394;51.208;8.904;2023-10-08T06:32:31;17.40;;;10.60;;
8714;SDS011;4394;51.208;8.904;2023-10-08T06:35:19;15.57;;;10.17;;
8714;SDS011;4394;51.208;8.904;2023-10-08T06:38:11;12.07;;;7.50;;
8714;SDS011;4394;51.208;8.904;2023-10-08T06:41:03;9.17;;;5.43;;
8714;SDS011;4394;51.208;8.904;2023-10-08T06:43:55;5.73;;;3.97;;
8714;SDS011;4394;51.208;8.904;2023-10-08T06:46:49;4.73;;;4.00;;
8714;SDS011;4394;51.208;8.904;2023-10-08T06:49:39;3.37;;;3.07;;
8714;SDS011;4394;51.208;8.904;2023-10-08T06:52:27;2.40;;;2.20;;
8714;SDS011;4394;51.208;8.904;2023-10-08T06:55:16;1.60;;;1.50;;
8714;SDS011;4394;51.208;8.904;2023-10-08T06:58:07;1.50;;;1.40;;
8714;SDS011;4394;51.208;8.904;2023-10-08T07:00:57;1.60;;;1.50;;
8714;SDS011;4394;51.208;8.904;2023-10-08T07:03:51;0.90;;;0.90;;
8714;SDS011;4394;51.208;8.904;2023-10-08T07:06:43;1.17;;;1.07;;
8714;SDS011;4394;51.208;8.904;2023-10-08T07:09:32;1.17;;;0.90;;
8714;SDS011;4394;51.208;8.904;2023-10-08T07:12:22;0.50;;;0.50;;
8714;SDS011;4394;51.208;8.904;2023-10-08T07:15:12;0.40;;;0.40;;
8714;SDS011;4394;51.208;8.904;2023-10-08T07:18:00;0.40;;;0.40;;
8714;SDS011;4394;51.208;8.904;2023-10-08T07:20:56;0.30;;;0.30;;
8714;SDS011;4394;51.208;8.904;2023-10-08T07:23:47;0.30;;;0.30;;
8714;SDS011;4394;51.208;8.904;2023-10-08T07:26:44;0.10;;;0.10;;
8714;SDS011;4394;51.208;8.904;2023-10-08T07:29:34;0.10;;;0.10;;
8714;SDS011;4394;51.208;8.904;2023-10-08T07:32:23;1.23;;;0.20;;
8714;SDS011;4394;51.208;8.904;2023-10-08T07:35:13;0.10;;;0.10;;
8714;SDS011;4394;51.208;8.904;2023-10-08T07:38:10;0.10;;;0.10;;
8714;SDS011;4394;51.208;8.904;2023-10-08T07:40:58;0.00;;;0.00;;
8714;SDS011;4394;51.208;8.904;2023-10-08T07:43:47;0.60;;;0.17;;
8714;SDS011;4394;51.208;8.904;2023-10-08T07:46:42;0.30;;;0.20;;
8714;SDS011;4394;51.208;8.904;2023-10-08T07:49:32;0.20;;;0.20;;
8714;SDS011;4394;51.208;8.904;2023-10-08T07:52:22;0.40;;;0.40;;
8714;SDS011;4394;51.208;8.904;2023-10-08T07:55:10;0.40;;;0.40;;
8714;SDS011;4394;51.208;8.904;2023-10-08T07:58:04;0.20;;;0.20;;
8714;SDS011;4394;51.208;8.904;2023-10-08T08:00:56;0.10;;;0.10;;
8714;SDS011;4394;51.208;8.904;2023-10-08T08:03:47;0.57;;;0.43;;
8714;SDS011;4394;51.208;8.904;2023-10-08T08:06:38;0.10;;;0.10;;
8714;SDS011;4394;51.208;8.904;2023-10-08T08:09:26;0.10;;;0.10;;
8714;SDS011;4394;51.208;8.904;2023-10-08T08:12:16;0.10;;;0.00;;
8714;SDS011;4394;51.208;8.904;2023-10-08T08:15:05;0.10;;;0.00;;
8714;SDS011;4394;51.208;8.904;2023-10-08T08:18:01;0.53;;;0.13;;
8714;SDS011;4394;51.208;8.904;2023-10-08T08:20:52;0.10;;;0.10;;
8714;SDS011;4394;51.208;8.904;2023-10-08T08:23:47;0.20;;;0.20;;
8714;SDS011;4394;51.208;8.904;2023-10-08T08:26:37;0.10;;;0.10;;
8714;SDS011;4394;51.208;8.904;2023-10-08T08:29:31;0.47;;;0.40;;
8714;SDS011;4394;51.208;8.904;2023-10-08T08:32:30;0.50;;;0.23;;
8714;SDS011;4394;51.208;8.904;2023-10-08T08:35:19;0.27;;;0.20;;
8714;SDS011;4394;51.208;8.904;2023-10-08T08:38:07;0.30;;;0.30;;
8714;SDS011;4394;51.208;8.904;2023-10-08T08:41:02;0.53;;;0.23;;
8714;SDS011;4394;51.208;8.904;2023-10-08T08:43:53;0.30;;;0.20;;
8714;SDS011;4394;51.208;8.904;2023-10-08T08:46:45;0.50;;;0.50;;
8714;SDS011;4394;51.208;8.904;2023-10-08T08:49:35;2.07;;;0.60;;
8714;SDS011;4394;51.208;8.904;2023-10-08T08:52:25;0.80;;;0.67;;
8714;SDS011;4394;51.208;8.904;2023-10-08T08:55:13;0.90;;;0.80;;
8714;SDS011;4394;51.208;8.904;2023-10-08T08:58:04;3.00;;;1.07;;
8714;SDS011;4394;51.208;8.904;2023-10-08T09:00:57;1.83;;;1.00;;
8714;SDS011;4394;51.208;8.904;2023-10-08T09:03:46;1.90;;;0.70;;
8714;SDS011;4394;51.208;8.904;2023-10-08T09:06:35;1.77;;;1.07;;
8714;SDS011;4394;51.208;8.904;2023-10-08T09:09:31;0.70;;;0.60;;
8714;SDS011;4394;51.208;8.904;2023-10-08T09:12:19;1.03;;;0.70;;
8714;SDS011;4394;51.208;8.904;2023-10-08T09:15:09;1.93;;;1.03;;
8714;SDS011;4394;51.208;8.904;2023-10-08T09:17:58;4.27;;;1.10;;
8714;SDS011;4394;51.208;8.904;2023-10-08T09:20:47;3.93;;;0.93;;
8714;SDS011;4394;51.208;8.904;2023-10-08T09:23:38;3.57;;;0.93;;
8714;SDS011;4394;51.208;8.904;2023-10-08T09:26:29;2.37;;;0.87;;
8714;SDS011;4394;51.208;8.904;2023-10-08T09:29:17;2.63;;;0.90;;
8714;SDS011;4394;51.208;8.904;2023-10-08T09:32:11;2.30;;;0.80;;
8714;SDS011;4394;51.208;8.904;2023-10-08T09:35:00;1.17;;;0.70;;
8714;SDS011;4394;51.208;8.904;2023-10-08T09:37:52;2.13;;;0.67;;
8714;SDS011;4394;51.208;8.904;2023-10-08T09:40:41;1.37;;;0.70;;
8714;SDS011;4394;51.208;8.904;2023-10-08T09:43:30;2.57;;;0.70;;
8714;SDS011;4394;51.208;8.904;2023-10-08T09:46:22;2.00;;;0.53;;
8714;SDS011;4394;51.208;8.904;2023-10-08T09:49:18;1.80;;;0.87;;
8714;SDS011;4394;51.208;8.904;2023-10-08T09:52:11;2.22;;;1.10;;
8714;SDS011;4394;51.208;8.904;2023-10-08T09:55:02;2.97;;;1.10;;
8714;SDS011;4394;51.208;8.904;2023-10-08T09:57:57;3.47;;;0.90;;
8714;SDS011;4394;51.208;8.904;2023-10-08T10:00:45;1.10;;;0.80;;
8714;SDS011;4394;51.208;8.904;2023-10-08T10:03:36;2.50;;;0.80;;
8714;SDS011;4394;51.208;8.904;2023-10-08T10:06:27;3.63;;;0.90;;
8714;SDS011;4394;51.208;8.904;2023-10-08T10:09:19;3.73;;;0.93;;
8714;SDS011;4394;51.208;8.904;2023-10-08T10:12:11;4.93;;;0.97;;
8714;SDS011;4394;51.208;8.904;2023-10-08T10:15:11;1.93;;;1.00;;
8714;SDS011;4394;51.208;8.904;2023-10-08T10:18:16;2.33;;;0.93;;
8714;SDS011;4394;51.208;8.904;2023-10-08T10:21:25;1.97;;;1.00;;
8714;SDS011;4394;51.208;8.904;2023-10-08T10:24:28;1.93;;;1.00;;
8714;SDS011;4394;51.208;8.904;2023-10-08T10:27:21;2.97;;;1.20;;
8714;SDS011;4394;51.208;8.904;2023-10-08T10:30:09;1.57;;;1.00;;
8714;SDS011;4394;51.208;8.904;2023-10-08T10:33:09;1.73;;;0.70;;
8714;SDS011;4394;51.208;8.904;2023-10-08T10:35:57;2.37;;;1.03;;
8714;SDS011;4394;51.208;8.904;2023-10-08T10:38:50;5.07;;;1.43;;
8714;SDS011;4394;51.208;8.904;2023-10-08T10:41:40;2.50;;;0.90;;
8714;SDS011;4394;51.208;8.904;2023-10-08T10:44:28;2.43;;;1.20;;
8714;SDS011;4394;51.208;8.904;2023-10-08T10:47:18;1.97;;;1.20;;
8714;SDS011;4394;51.208;8.904;2023-10-08T10:50:29;2.40;;;1.00;;
8714;SDS011;4394;51.208;8.904;2023-10-08T10:53:18;2.43;;;0.87;;
8714;SDS011;4394;51.208;8.904;2023-10-08T10:56:07;1.90;;;1.00;;
8714;SDS011;4394;51.208;8.904;2023-10-08T10:58:58;2.87;;;0.80;;
8714;SDS011;4394;51.208;8.904;2023-10-08T11:01:52;3.13;;;1.30;;
8714;SDS011;4394;51.208;8.904;2023-10-08T11:04:41;1.27;;;0.90;;
8714;SDS011;4394;51.208;8.904;2023-10-08T11:07:34;2.03;;;1.10;;
8714;SDS011;4394;51.208;8.904;2023-10-08T11:10:27;3.80;;;1.43;;
8714;SDS011;4394;51.208;8.904;2023-10-08T11:13:18;2.10;;;1.10;;
8714;SDS011;4394;51.208;8.904;2023-10-08T11:16:07;2.73;;;1.20;;
8714;SDS011;4394;51.208;8.904;2023-10-08T11:19:00;1.73;;;1.20;;
8714;SDS011;4394;51.208;8.904;2023-10-08T11:21:53;2.40;;;1.27;;
8714;SDS011;4394;51.208;8.904;2023-10-08T11:24:42;2.17;;;1.10;;
8714;SDS011;4394;51.208;8.904;2023-10-08T11:27:34;3.00;;;1.38;;
8714;SDS011;4394;51.208;8.904;2023-10-08T11:30:26;3.87;;;1.40;;
8714;SDS011;4394;51.208;8.904;2023-10-08T11:33:17;3.27;;;1.10;;
8714;SDS011;4394;51.208;8.904;2023-10-08T11:36:06;3.47;;;1.33;;
8714;SDS011;4394;51.208;8.904;2023-10-08T11:39:08;2.13;;;1.20;;
8714;SDS011;4394;51.208;8.904;2023-10-08T11:41:59;4.60;;;1.30;;
8714;SDS011;4394;51.208;8.904;2023-10-08T11:44:57;3.33;;;1.17;;
8714;SDS011;4394;51.208;8.904;2023-10-08T11:47:48;4.33;;;1.57;;
8714;SDS011;4394;51.208;8.904;2023-10-08T11:50:36;1.50;;;1.20;;
8714;SDS011;4394;51.208;8.904;2023-10-08T11:53:25;3.43;;;1.43;;
8714;SDS011;4394;51.208;8.904;2023-10-08T11:56:14;2.43;;;1.30;;
8714;SDS011;4394;51.208;8.904;2023-10-08T11:59:02;2.77;;;1.10;;
8714;SDS011;4394;51.208;8.904;2023-10-08T12:01:55;2.07;;;0.87;;
8714;SDS011;4394;51.208;8.904;2023-10-08T12:04:44;2.10;;;0.67;;
8714;SDS011;4394;51.208;8.904;2023-10-08T12:07:34;1.03;;;0.63;;
8714;SDS011;4394;51.208;8.904;2023-10-08T12:10:26;2.20;;;0.60;;
8714;SDS011;4394;51.208;8.904;2023-10-08T12:13:17;1.77;;;0.90;;
8714;SDS011;4394;51.208;8.904;2023-10-08T12:16:13;2.20;;;0.90;;
8714;SDS011;4394;51.208;8.904;2023-10-08T12:19:07;1.50;;;0.97;;
8714;SDS011;4394;51.208;8.904;2023-10-08T12:22:04;2.27;;;1.20;;
8714;SDS011;4394;51.208;8.904;2023-10-08T12:24:53;1.47;;;0.77;;
8714;SDS011;4394;51.208;8.904;2023-10-08T12:27:42;1.97;;;0.70;;
8714;SDS011;4394;51.208;8.904;2023-10-08T12:30:31;1.00;;;0.80;;
8714;SDS011;4394;51.208;8.904;2023-10-08T12:33:27;2.33;;;0.80;;
8714;SDS011;4394;51.208;8.904;2023-10-08T12:36:16;2.87;;;1.10;;
8714;SDS011;4394;51.208;8.904;2023-10-08T12:39:10;2.57;;;1.23;;
8714;SDS011;4394;51.208;8.904;2023-10-08T12:42:01;2.30;;;0.93;;
8714;SDS011;4394;51.208;8.904;2023-10-08T12:44:51;4.43;;;1.83;;
8714;SDS011;4394;51.208;8.904;2023-10-08T12:47:41;3.05;;;1.90;;
8714;SDS011;4394;51.208;8.904;2023-10-08T12:50:30;1.63;;;1.33;;
8714;SDS011;4394;51.208;8.904;2023-10-08T12:53:29;1.57;;;0.87;;
8714;SDS011;4394;51.208;8.904;2023-10-08T12:56:22;1.60;;;0.83;;
8714;SDS011;4394;51.208;8.904;2023-10-08T12:59:18;1.17;;;0.73;;
8714;SDS011;4394;51.208;8.904;2023-10-08T13:02:08;1.27;;;0.70;;
8714;SDS011;4394;51.208;8.904;2023-10-08T13:04:57;1.77;;;1.20;;
8714;SDS011;4394;51.208;8.904;2023-10-08T13:07:46;1.03;;;0.93;;
8714;SDS011;4394;51.208;8.904;2023-10-08T13:10:34;2.20;;;0.77;;
8714;SDS011;4394;51.208;8.904;2023-10-08T13:13:25;1.70;;;0.60;;
8714;SDS011;4394;51.208;8.904;2023-10-08T13:16:13;1.87;;;0.80;;
8714;SDS011;4394;51.208;8.904;2023-10-08T13:19:01;2.27;;;0.90;;
8714;SDS011;4394;51.208;8.904;2023-10-08T13:21:50;2.03;;;0.77;;
8714;SDS011;4394;51.208;8.904;2023-10-08T13:24:39;0.90;;;0.70;;
8714;SDS011;4394;51.208;8.904;2023-10-08T13:27:28;1.10;;;0.70;;
8714;SDS011;4394;51.208;8.904;2023-10-08T13:30:18;1.30;;;0.60;;
8714;SDS011;4394;51.208;8.904;2023-10-08T13:33:07;1.50;;;0.60;;
8714;SDS011;4394;51.208;8.904;2023-10-08T13:35:56;1.30;;;0.60;;
8714;SDS011;4394;51.208;8.904;2023-10-08T13:39:03;2.00;;;0.67;;
8714;SDS011;4394;51.208;8.904;2023-10-08T13:41:55;2.03;;;0.80;;
8714;SDS011;4394;51.208;8.904;2023-10-08T13:44:47;1.93;;;0.57;;
8714;SDS011;4394;51.208;8.904;2023-10-08T13:47:37;1.77;;;0.90;;
8714;SDS011;4394;51.208;8.904;2023-10-08T13:50:26;1.40;;;0.87;;
8714;SDS011;4394;51.208;8.904;2023-10-08T13:53:17;0.70;;;0.67;;
8714;SDS011;4394;51.208;8.904;2023-10-08T13:56:06;1.00;;;0.67;;
8714;SDS011;4394;51.208;8.904;2023-10-08T13:58:58;2.77;;;0.87;;
8714;SDS011;4394;51.208;8.904;2023-10-08T14:01:52;2.87;;;1.83;;
8714;SDS011;4394;51.208;8.904;2023-10-08T14:04:43;2.07;;;1.10;;
8714;SDS011;4394;51.208;8.904;2023-10-08T14:07:32;1.50;;;1.30;;
8714;SDS011;4394;51.208;8.904;2023-10-08T14:10:21;1.37;;;0.80;;
8714;SDS011;4394;51.208;8.904;2023-10-08T14:13:16;3.03;;;0.97;;
8714;SDS011;4394;51.208;8.904;2023-10-08T14:16:05;1.87;;;1.00;;
8714;SDS011;4394;51.208;8.904;2023-10-08T14:18:55;2.60;;;0.90;;
8714;SDS011;4394;51.208;8.904;2023-10-08T14:21:47;2.77;;;1.80;;
8714;SDS011;4394;51.208;8.904;2023-10-08T14:24:40;1.50;;;1.23;;
8714;SDS011;4394;51.208;8.904;2023-10-08T14:27:30;2.60;;;1.10;;
8714;SDS011;4394;51.208;8.904;2023-10-08T14:30:19;1.17;;;0.83;;
8714;SDS011;4394;51.208;8.904;2023-10-08T14:33:10;1.70;;;1.20;;
8714;SDS011;4394;51.208;8.904;2023-10-08T14:36:10;1.60;;;0.90;;
8714;SDS011;4394;51.208;8.904;2023-10-08T14:39:17;1.67;;;0.90;;
8714;SDS011;4394;51.208;8.904;2023-10-08T14:42:31;2.47;;;0.70;;
8714;SDS011;4394;51.208;8.904;2023-10-08T14:45:36;2.27;;;1.47;;
8714;SDS011;4394;51.208;8.904;2023-10-08T14:48:27;7.03;;;2.40;;
8714;SDS011;4394;51.208;8.904;2023-10-08T14:51:16;3.10;;;2.07;;
8714;SDS011;4394;51.208;8.904;2023-10-08T14:54:06;5.23;;;3.30;;
8714;SDS011;4394;51.208;8.904;2023-10-08T14:56:56;4.53;;;3.77;;
8714;SDS011;4394;51.208;8.904;2023-10-08T14:59:45;2.77;;;1.50;;
8714;SDS011;4394;51.208;8.904;2023-10-08T15:02:33;1.20;;;0.80;;
8714;SDS011;4394;51.208;8.904;2023-10-08T15:05:21;1.37;;;0.80;;
8714;SDS011;4394;51.208;8.904;2023-10-08T15:08:10;2.00;;;0.50;;
8714;SDS011;4394;51.208;8.904;2023-10-08T15:11:01;0.77;;;0.50;;
8714;SDS011;4394;51.208;8.904;2023-10-08T15:13:51;2.40;;;0.80;;
8714;SDS011;4394;51.208;8.904;2023-10-08T15:16:40;5.03;;;0.80;;
8714;SDS011;4394;51.208;8.904;2023-10-08T15:19:30;4.27;;;1.00;;
8714;SDS011;4394;51.208;8.904;2023-10-08T15:22:18;2.43;;;1.00;;
8714;SDS011;4394;51.208;8.904;2023-10-08T15:25:07;1.97;;;0.63;;
8714;SDS011;4394;51.208;8.904;2023-10-08T15:27:57;3.40;;;0.80;;
8714;SDS011;4394;51.208;8.904;2023-10-08T15:30:46;2.03;;;0.60;;
8714;SDS011;4394;51.208;8.904;2023-10-08T15:33:34;1.83;;;0.83;;
8714;SDS011;4394;51.208;8.904;2023-10-08T15:36:23;3.10;;;1.13;;
8714;SDS011;4394;51.208;8.904;2023-10-08T15:39:13;4.00;;;0.87;;
8714;SDS011;4394;51.208;8.904;2023-10-08T15:42:08;2.50;;;0.80;;
8714;SDS011;4394;51.208;8.904;2023-10-08T15:44:57;0.83;;;0.50;;
8714;SDS011;4394;51.208;8.904;2023-10-08T15:47:47;2.03;;;1.07;;
8714;SDS011;4394;51.208;8.904;2023-10-08T15:50:37;1.73;;;1.00;;
8714;SDS011;4394;51.208;8.904;2023-10-08T15:53:26;1.93;;;1.13;;
8714;SDS011;4394;51.208;8.904;2023-10-08T15:56:14;1.60;;;1.50;;
8714;SDS011;4394;51.208;8.904;2023-10-08T15:59:02;3.90;;;2.10;;
8714;SDS011;4394;51.208;8.904;2023-10-08T16:01:50;3.23;;;2.60;;
8714;SDS011;4394;51.208;8.904;2023-10-08T16:04:40;2.33;;;2.13;;
8714;SDS011;4394;51.208;8.904;2023-10-08T16:07:28;2.20;;;1.80;;
8714;SDS011;4394;51.208;8.904;2023-10-08T16:10:17;3.27;;;2.10;;
8714;SDS011;4394;51.208;8.904;2023-10-08T16:13:06;2.80;;;1.50;;
8714;SDS011;4394;51.208;8.904;2023-10-08T16:15:55;1.90;;;1.20;;
8714;SDS011;4394;51.208;8.904;2023-10-08T16:18:45;1.30;;;0.77;;
8714;SDS011;4394;51.208;8.904;2023-10-08T16:21:35;0.60;;;0.60;;
8714;SDS011;4394;51.208;8.904;2023-10-08T16:24:24;2.23;;;0.90;;
8714;SDS011;4394;51.208;8.904;2023-10-08T16:27:13;1.97;;;1.20;;
8714;SDS011;4394;51.208;8.904;2023-10-08T16:30:02;2.00;;;1.37;;
8714;SDS011;4394;51.208;8.904;2023-10-08T16:32:50;4.40;;;1.60;;
8714;SDS011;4394;51.208;8.904;2023-10-08T16:35:39;3.33;;;1.50;;
8714;SDS011;4394;51.208;8.904;2023-10-08T16:38:29;2.23;;;1.07;;
8714;SDS011;4394;51.208;8.904;2023-10-08T16:41:17;3.13;;;0.80;;
8714;SDS011;4394;51.208;8.904;2023-10-08T16:44:05;1.67;;;0.80;;
8714;SDS011;4394;51.208;8.904;2023-10-08T16:46:53;0.97;;;0.70;;
8714;SDS011;4394;51.208;8.904;2023-10-08T16:49:41;2.05;;;0.80;;
8714;SDS011;4394;51.208;8.904;2023-10-08T16:52:29;2.73;;;1.13;;
8714;SDS011;4394;51.208;8.904;2023-10-08T16:55:19;1.27;;;0.80;;
8714;SDS011;4394;51.208;8.904;2023-10-08T16:58:07;0.77;;;0.60;;
8714;SDS011;4394;51.208;8.904;2023-10-08T17:00:57;1.63;;;0.87;;
8714;SDS011;4394;51.208;8.904;2023-10-08T17:03:45;2.23;;;0.80;;
8714;SDS011;4394;51.208;8.904;2023-10-08T17:06:33;2.80;;;0.90;;
8714;SDS011;4394;51.208;8.904;2023-10-08T17:09:22;3.70;;;0.80;;
8714;SDS011;4394;51.208;8.904;2023-10-08T17:12:14;2.20;;;0.70;;
8714;SDS011;4394;51.208;8.904;2023-10-08T17:15:05;1.23;;;0.90;;
8714;SDS011;4394;51.208;8.904;2023-10-08T17:17:57;1.60;;;0.60;;
8714;SDS011;4394;51.208;8.904;2023-10-08T17:20:45;1.97;;;0.70;;
8714;SDS011;4394;51.208;8.904;2023-10-08T17:23:33;1.67;;;0.90;;
8714;SDS011;4394;51.208;8.904;2023-10-08T17:26:22;1.63;;;0.93;;
8714;SDS011;4394;51.208;8.904;2023-10-08T17:29:11;1.17;;;0.77;;
8714;SDS011;4394;51.208;8.904;2023-10-08T17:32:02;2.53;;;1.00;;
8714;SDS011;4394;51.208;8.904;2023-10-08T17:34:52;1.87;;;1.47;;
8714;SDS011;4394;51.208;8.904;2023-10-08T17:37:40;2.13;;;1.30;;
8714;SDS011;4394;51.208;8.904;2023-10-08T17:40:30;3.37;;;1.70;;
8714;SDS011;4394;51.208;8.904;2023-10-08T17:43:18;1.73;;;1.57;;